Time;durP1;ratioP1;P1;durP2;ratioP2;P2;SDS_P1;SDS_P2;PMS_P1;PMS_P2;Temp;Humidity;BMP_temperature;BMP_pressure;BME280_temperature;BME280_humidity;BME280_pressure;Samples;Min_cycle;Max_cycle;Signal;HPM_P1;HPM_P2
2023/01/28 00:02:00;;;;;;;21.75;17.48;;;;;;;;;;5055943;28;20381;-81
2023/01/28 00:04:26;;;;;;;19.42;15.98;;;;;;;;;;5037320;28;20538;-81
2023/01/28 00:06:52;;;;;;;19.58;15.70;;;;;;;;;;5044330;28;20499;-82
2023/01/28 00:09:19;;;;;;;21.92;17.23;;;;;;;;;;5043554;28;20831;-81
2023/01/28 00:11:45;;;;;;;21.08;16.70;;;;;;;;;;5054454;28;20376;-83
2023/01/28 00:14:11;;;;;;;19.48;15.95;;;;;;;;;;5042806;28;20427;-80
2023/01/28 00:16:37;;;;;;;20.02;16.17;;;;;;;;;;5034669;28;20386;-81
2023/01/28 00:19:03;;;;;;;19.95;16.40;;;;;;;;;;5052598;28;20416;-80
2023/01/28 00:21:30;;;;;;;19.88;16.30;;;;;;;;;;5034745;28;20417;-81
2023/01/28 00:23:56;;;;;;;20.17;16.45;;;;;;;;;;5053021;28;20439;-81
2023/01/28 00:26:24;;;;;;;19.45;16.05;;;;;;;;;;5052305;28;20902;-82
2023/01/28 00:28:50;;;;;;;19.00;15.83;;;;;;;;;;5052886;28;20443;-82
2023/01/28 00:31:20;;;;;;;19.90;16.15;;;;;;;;;;5053666;28;20370;-81
2023/01/28 00:33:47;;;;;;;18.90;16.00;;;;;;;;;;5053687;28;20430;-82
2023/01/28 00:36:13;;;;;;;19.45;15.48;;;;;;;;;;5054094;28;20917;-83
2023/01/28 00:38:41;;;;;;;18.42;15.90;;;;;;;;;;5054023;28;20416;-82
2023/01/28 00:41:14;;;;;;;17.65;15.50;;;;;;;;;;5055026;28;20460;-82
2023/01/28 00:43:41;;;;;;;20.17;16.95;;;;;;;;;;5037335;28;20395;-82
2023/01/28 00:46:07;;;;;;;17.92;15.80;;;;;;;;;;5054937;28;20405;-82
2023/01/28 00:48:33;;;;;;;17.35;15.13;;;;;;;;;;5054988;28;20373;-82
2023/01/28 00:50:59;;;;;;;19.17;16.13;;;;;;;;;;5054071;28;20378;-82
2023/01/28 00:53:26;;;;;;;17.58;15.15;;;;;;;;;;5054436;28;20382;-82
2023/01/28 00:55:52;;;;;;;17.33;15.43;;;;;;;;;;5054908;28;20377;-82
2023/01/28 00:58:18;;;;;;;16.93;15.13;;;;;;;;;;5054815;28;20384;-82
2023/01/28 01:00:45;;;;;;;18.00;15.45;;;;;;;;;;5054773;28;20385;-82
2023/01/28 01:03:11;;;;;;;17.35;15.55;;;;;;;;;;5054800;28;20386;-82
2023/01/28 01:05:37;;;;;;;17.42;15.50;;;;;;;;;;5054072;28;20474;-82
2023/01/28 01:08:03;;;;;;;16.52;14.82;;;;;;;;;;5054243;28;20855;-82
2023/01/28 01:10:29;;;;;;;16.55;14.77;;;;;;;;;;5036710;28;20394;-82
2023/01/28 01:12:56;;;;;;;17.25;15.38;;;;;;;;;;5054823;28;20414;-82
2023/01/28 01:15:23;;;;;;;18.58;16.58;;;;;;;;;;5054505;28;20413;-82
2023/01/28 01:17:49;;;;;;;18.70;16.67;;;;;;;;;;5054394;28;20385;-82
2023/01/28 01:20:17;;;;;;;19.20;16.40;;;;;;;;;;5054548;28;20385;-82
2023/01/28 01:22:43;;;;;;;17.10;15.30;;;;;;;;;;5054326;28;20429;-82
2023/01/28 01:25:09;;;;;;;19.88;16.50;;;;;;;;;;5054168;28;20501;-82
2023/01/28 01:27:35;;;;;;;17.98;16.08;;;;;;;;;;5051171;28;20381;-82
2023/01/28 01:30:01;;;;;;;19.13;16.55;;;;;;;;;;5053946;28;20370;-82
2023/01/28 01:32:31;;;;;;;19.13;17.00;;;;;;;;;;5056119;28;20378;-82
2023/01/28 01:34:57;;;;;;;19.63;16.83;;;;;;;;;;5055667;28;20409;-81
2023/01/28 01:37:23;;;;;;;18.95;16.45;;;;;;;;;;5059153;28;20536;-82
2023/01/28 01:39:49;;;;;;;18.60;16.60;;;;;;;;;;5058274;28;20469;-82
2023/01/28 01:42:15;;;;;;;18.33;16.33;;;;;;;;;;5038565;28;20437;-82
2023/01/28 01:44:47;;;;;;;20.67;17.00;;;;;;;;;;5055694;28;20409;-82
2023/01/28 01:47:14;;;;;;;18.80;16.75;;;;;;;;;;5054916;28;20429;-82
2023/01/28 01:49:40;;;;;;;18.53;16.53;;;;;;;;;;5054200;28;20453;-82
2023/01/28 01:52:08;;;;;;;19.40;16.92;;;;;;;;;;5054149;28;20380;-82
2023/01/28 01:54:35;;;;;;;18.83;16.83;;;;;;;;;;5036068;28;21222;-82
2023/01/28 01:57:02;;;;;;;19.53;17.10;;;;;;;;;;5053964;28;20943;-82
2023/01/28 01:59:29;;;;;;;19.60;17.27;;;;;;;;;;5053728;28;20381;-82
2023/01/28 02:01:55;;;;;;;19.63;17.52;;;;;;;;;;5053976;28;20404;-82
2023/01/28 02:04:31;;;;;;;19.25;17.02;;;;;;;;;;5053648;28;20419;-82
2023/01/28 02:06:59;;;;;;;19.70;17.60;;;;;;;;;;5053470;28;20510;-82
2023/01/28 02:09:29;;;;;;;20.27;17.75;;;;;;;;;;5053692;28;20465;-82
2023/01/28 02:12:01;;;;;;;19.77;17.52;;;;;;;;;;5053605;28;20438;-82
2023/01/28 02:14:29;;;;;;;19.70;16.90;;;;;;;;;;5053321;28;20381;-82
2023/01/28 02:16:55;;;;;;;18.73;16.73;;;;;;;;;;5035999;28;20415;-82
2023/01/28 02:19:21;;;;;;;20.02;17.77;;;;;;;;;;5049152;28;20393;-82
2023/01/28 02:21:50;;;;;;;19.43;17.33;;;;;;;;;;5052020;28;20970;-82
2023/01/28 02:24:35;;;;;;;20.17;17.70;;;;;;;;;;5052349;28;20411;-82
2023/01/28 02:27:13;;;;;;;19.48;17.15;;;;;;;;;;5052633;28;20915;-82
2023/01/28 02:29:58;;;;;;;20.27;17.77;;;;;;;;;;5052971;28;20381;-82
2023/01/28 02:32:31;;;;;;;20.00;17.55;;;;;;;;;;5053212;28;20396;-82
2023/01/28 02:35:05;;;;;;;19.33;17.25;;;;;;;;;;5031751;28;20502;-82
2023/01/28 02:37:36;;;;;;;18.92;16.80;;;;;;;;;;5033316;28;20387;-82
2023/01/28 02:40:05;;;;;;;19.47;17.37;;;;;;;;;;5033588;28;20386;-82
2023/01/28 02:42:33;;;;;;;19.85;17.73;;;;;;;;;;5024379;28;20450;-82
2023/01/28 02:44:59;;;;;;;19.35;17.35;;;;;;;;;;5023751;28;20418;-82
2023/01/28 02:50:15;;;;;;;18.30;16.50;;;;;;;;;;5031547;28;20527;-82
2023/01/28 02:55:40;;;;;;;18.65;16.75;;;;;;;;;;5032806;28;20387;-82
2023/01/28 02:58:06;;;;;;;18.10;16.30;;;;;;;;;;5031442;28;20477;-82
2023/01/28 03:00:38;;;;;;;17.63;15.82;;;;;;;;;;5031783;28;20437;-82
2023/01/28 03:03:15;;;;;;;17.95;15.98;;;;;;;;;;5032918;28;20796;-82
2023/01/28 03:06:02;;;;;;;16.42;14.73;;;;;;;;;;5032121;28;20479;-82
2023/01/28 03:38:53;;;;;;;21.40;16.77;;;;;;;;;;5032063;28;20452;-82
2023/01/28 03:41:23;;;;;;;14.23;12.88;;;;;;;;;;5032176;28;20454;-82
2023/01/28 03:43:50;;;;;;;26.83;18.48;;;;;;;;;;5032625;28;20733;-82
2023/01/28 03:46:17;;;;;;;14.90;13.35;;;;;;;;;;5031964;28;20418;-82
2023/01/28 03:48:43;;;;;;;14.40;12.90;;;;;;;;;;5032288;28;20452;-82
2023/01/28 03:51:09;;;;;;;17.77;15.10;;;;;;;;;;5032085;28;20375;-82
2023/01/28 03:53:35;;;;;;;14.13;12.73;;;;;;;;;;5031906;28;20875;-82
2023/01/28 03:56:01;;;;;;;30.63;19.27;;;;;;;;;;5032001;28;20375;-82
2023/01/28 03:58:45;;;;;;;26.73;18.90;;;;;;;;;;5030707;28;21000;-82
2023/01/28 04:01:11;;;;;;;26.38;18.60;;;;;;;;;;5024375;28;20413;-82
2023/01/28 04:03:38;;;;;;;15.68;14.00;;;;;;;;;;5031943;28;20382;-82
2023/01/28 04:06:05;;;;;;;26.40;19.08;;;;;;;;;;5031861;28;20403;-82
2023/01/28 04:08:31;;;;;;;15.45;13.88;;;;;;;;;;5031910;28;20869;-82
2023/01/28 04:10:57;;;;;;;28.17;19.52;;;;;;;;;;5031919;28;20386;-82
2023/01/28 04:13:23;;;;;;;17.65;15.73;;;;;;;;;;5031784;28;20454;-82
2023/01/28 04:15:50;;;;;;;30.92;20.80;;;;;;;;;;5031870;28;20387;-82
2023/01/28 04:18:16;;;;;;;42.42;24.27;;;;;;;;;;5031973;28;20444;-82
2023/01/28 04:20:42;;;;;;;49.85;25.80;;;;;;;;;;5031929;28;20421;-82
2023/01/28 04:23:08;;;;;;;292.20;83.47;;;;;;;;;;5032202;28;20403;-82
2023/01/28 04:25:34;;;;;;;78.75;32.42;;;;;;;;;;5032086;28;20409;-82
2023/01/28 04:28:00;;;;;;;177.70;53.05;;;;;;;;;;5035947;28;20385;-82
2023/01/28 04:30:27;;;;;;;121.72;40.75;;;;;;;;;;5035931;28;20811;-82
2023/01/28 04:32:53;;;;;;;129.95;41.60;;;;;;;;;;5035789;28;20382;-82
2023/01/28 04:35:19;;;;;;;32.80;23.52;;;;;;;;;;5049690;28;20401;-82
2023/01/28 04:37:45;;;;;;;56.65;37.22;;;;;;;;;;5055349;28;20389;-82
2023/01/28 04:40:12;;;;;;;33.60;28.15;;;;;;;;;;5053192;28;20468;-82
2023/01/28 04:42:38;;;;;;;29.73;23.90;;;;;;;;;;5055240;28;20555;-82
2023/01/28 04:45:05;;;;;;;23.80;20.77;;;;;;;;;;5054904;28;20487;-82
2023/01/28 04:47:31;;;;;;;25.70;21.83;;;;;;;;;;5056179;28;20388;-82
2023/01/28 04:49:57;;;;;;;44.10;30.85;;;;;;;;;;5056026;28;20464;-82
2023/01/28 04:52:23;;;;;;;26.80;21.92;;;;;;;;;;5039233;28;20396;-82
2023/01/28 04:54:49;;;;;;;40.53;28.95;;;;;;;;;;5062173;28;20389;-82
2023/01/28 04:57:15;;;;;;;24.77;20.98;;;;;;;;;;5046400;28;20404;-82
2023/01/28 04:59:41;;;;;;;24.10;20.48;;;;;;;;;;5066851;28;20478;-81
2023/01/28 05:02:07;;;;;;;28.02;23.27;;;;;;;;;;5050563;28;20390;-81
2023/01/28 05:04:33;;;;;;;23.15;20.20;;;;;;;;;;5046107;28;20391;-82
2023/01/28 05:06:59;;;;;;;22.20;19.80;;;;;;;;;;5051367;28;20781;-82
2023/01/28 05:09:25;;;;;;;23.75;20.15;;;;;;;;;;5055462;28;20483;-82
2023/01/28 05:11:51;;;;;;;24.00;20.02;;;;;;;;;;5055206;28;20818;-82
2023/01/28 05:14:17;;;;;;;22.73;19.70;;;;;;;;;;5054337;28;20446;-82
2023/01/28 05:16:43;;;;;;;23.27;20.23;;;;;;;;;;5055161;28;20885;-82
2023/01/28 05:19:09;;;;;;;24.92;21.35;;;;;;;;;;5054922;28;20381;-82
2023/01/28 05:21:35;;;;;;;21.88;19.35;;;;;;;;;;5054553;28;20881;-81
2023/01/28 05:24:01;;;;;;;22.88;19.52;;;;;;;;;;5052792;28;20385;-82
2023/01/28 05:26:27;;;;;;;25.23;21.05;;;;;;;;;;5053676;28;20433;-82
2023/01/28 05:28:53;;;;;;;24.30;19.98;;;;;;;;;;5039967;28;20475;-82
2023/01/28 05:31:19;;;;;;;25.17;20.00;;;;;;;;;;5053680;28;20858;-82
2023/01/28 05:33:51;;;;;;;23.67;19.83;;;;;;;;;;5051833;28;20439;-82
2023/01/28 05:36:18;;;;;;;22.27;18.67;;;;;;;;;;5053431;28;21031;-81
2023/01/28 05:38:44;;;;;;;29.77;22.77;;;;;;;;;;5053135;28;20393;-82
2023/01/28 05:41:10;;;;;;;21.17;17.77;;;;;;;;;;5052936;28;20431;-82
2023/01/28 05:43:36;;;;;;;30.30;22.50;;;;;;;;;;5053336;28;20381;-83
2023/01/28 05:46:02;;;;;;;23.73;19.35;;;;;;;;;;5035101;28;21090;-81
2023/01/28 05:48:28;;;;;;;24.75;19.05;;;;;;;;;;5053226;28;20439;-83
2023/01/28 05:50:54;;;;;;;36.45;23.35;;;;;;;;;;5052797;28;20393;-82
2023/01/28 05:53:20;;;;;;;25.42;18.77;;;;;;;;;;5052910;28;20886;-83
2023/01/28 05:55:50;;;;;;;26.90;19.58;;;;;;;;;;5034937;28;20388;-81
2023/01/28 05:58:16;;;;;;;18.48;16.08;;;;;;;;;;5035564;28;20397;-81
2023/01/28 06:00:42;;;;;;;28.20;18.88;;;;;;;;;;5052848;28;20863;-82
2023/01/28 06:03:08;;;;;;;35.85;22.17;;;;;;;;;;5052812;28;20727;-82
2023/01/28 06:05:34;;;;;;;38.35;22.05;;;;;;;;;;5052747;28;20921;-82
2023/01/28 06:08:00;;;;;;;18.63;15.57;;;;;;;;;;5052633;28;20377;-82
2023/01/28 06:10:26;;;;;;;19.65;15.48;;;;;;;;;;5052559;28;20392;-82
2023/01/28 06:12:52;;;;;;;19.77;16.38;;;;;;;;;;5052556;28;20731;-82
2023/01/28 06:15:19;;;;;;;25.27;19.87;;;;;;;;;;5052043;28;20500;-81
2023/01/28 06:17:45;;;;;;;48.30;29.17;;;;;;;;;;5052722;28;20373;-82
2023/01/28 06:20:12;;;;;;;35.97;24.77;;;;;;;;;;5052633;28;20728;-82
2023/01/28 06:22:38;;;;;;;23.80;19.20;;;;;;;;;;5053709;28;20369;-82
2023/01/28 06:25:04;;;;;;;28.02;21.98;;;;;;;;;;5052161;28;20401;-81
2023/01/28 06:27:30;;;;;;;26.08;20.90;;;;;;;;;;5035751;28;20393;-82
2023/01/28 06:29:56;;;;;;;24.33;20.63;;;;;;;;;;5053639;28;20389;-82
2023/01/28 06:32:22;;;;;;;24.75;20.75;;;;;;;;;;5053420;28;20812;-82
2023/01/28 06:34:48;;;;;;;23.42;20.38;;;;;;;;;;5051730;28;20449;-82
2023/01/28 06:37:15;;;;;;;24.45;20.48;;;;;;;;;;5052634;28;20535;-83
2023/01/28 06:39:41;;;;;;;22.38;19.40;;;;;;;;;;5052676;28;20378;-83
2023/01/28 06:42:07;;;;;;;20.42;17.80;;;;;;;;;;5034984;28;20894;-82
2023/01/28 06:44:33;;;;;;;18.20;16.30;;;;;;;;;;5052710;28;20385;-82
2023/01/28 06:46:59;;;;;;;18.90;16.60;;;;;;;;;;5053419;28;20400;-81
2023/01/28 06:49:25;;;;;;;17.42;15.50;;;;;;;;;;5052073;28;20382;-83
2023/01/28 06:51:51;;;;;;;19.02;16.27;;;;;;;;;;5050233;28;20432;-83
2023/01/28 06:54:17;;;;;;;17.98;15.95;;;;;;;;;;5052571;28;20435;-82
2023/01/28 06:56:43;;;;;;;17.98;16.10;;;;;;;;;;5053280;28;20381;-82
2023/01/28 06:59:09;;;;;;;18.77;16.88;;;;;;;;;;5050815;28;20385;-82
2023/01/28 07:01:35;;;;;;;19.48;17.45;;;;;;;;;;5052868;28;20388;-81
2023/01/28 07:04:01;;;;;;;20.77;17.70;;;;;;;;;;5033922;28;20402;-82
2023/01/28 07:06:27;;;;;;;19.30;17.20;;;;;;;;;;5052993;28;20405;-82
2023/01/28 07:08:53;;;;;;;19.67;17.58;;;;;;;;;;5053612;28;20777;-82
2023/01/28 07:11:19;;;;;;;19.48;17.42;;;;;;;;;;5046149;28;20395;-84
2023/01/28 07:13:46;;;;;;;19.17;16.13;;;;;;;;;;5050428;28;20876;-84
2023/01/28 07:16:12;;;;;;;19.27;16.88;;;;;;;;;;5052933;28;20881;-84
2023/01/28 07:18:38;;;;;;;16.67;14.88;;;;;;;;;;5053113;28;20389;-84
2023/01/28 07:21:04;;;;;;;15.77;14.18;;;;;;;;;;5035068;28;20397;-84
2023/01/28 07:23:30;;;;;;;16.43;14.50;;;;;;;;;;5053296;28;20738;-84
2023/01/28 07:26:00;;;;;;;15.35;13.85;;;;;;;;;;5052939;28;20401;-84
2023/01/28 07:28:26;;;;;;;16.50;14.75;;;;;;;;;;5045958;28;20376;-83
2023/01/28 07:30:52;;;;;;;15.45;13.90;;;;;;;;;;5051175;28;20385;-83
2023/01/28 07:33:18;;;;;;;14.70;13.20;;;;;;;;;;5053346;28;20427;-83
2023/01/28 07:35:45;;;;;;;14.25;12.90;;;;;;;;;;5052455;28;20406;-84
2023/01/28 07:38:11;;;;;;;14.95;13.55;;;;;;;;;;5034667;28;20743;-83
2023/01/28 07:40:37;;;;;;;15.37;13.83;;;;;;;;;;5035273;28;20382;-82
2023/01/28 07:43:03;;;;;;;15.27;13.77;;;;;;;;;;5046054;28;20408;-83
2023/01/28 07:45:30;;;;;;;14.75;13.38;;;;;;;;;;5052868;28;20449;-85
2023/01/28 07:47:57;;;;;;;14.13;12.82;;;;;;;;;;5052819;28;20378;-83
2023/01/28 07:50:24;;;;;;;15.18;13.68;;;;;;;;;;5053194;28;20467;-83
2023/01/28 07:52:50;;;;;;;14.82;13.40;;;;;;;;;;5053210;28;20728;-84
2023/01/28 07:55:16;;;;;;;14.88;13.38;;;;;;;;;;5053267;28;20388;-84
2023/01/28 07:57:49;;;;;;;15.35;13.75;;;;;;;;;;5053565;28;20405;-84
2023/01/28 08:00:15;;;;;;;15.43;13.82;;;;;;;;;;5054216;28;20397;-84
2023/01/28 08:02:43;;;;;;;14.93;13.43;;;;;;;;;;5056665;28;20389;-84
2023/01/28 08:05:10;;;;;;;14.70;13.20;;;;;;;;;;5055974;28;20405;-83
2023/01/28 08:07:36;;;;;;;13.63;12.23;;;;;;;;;;5043548;28;20391;-83
2023/01/28 08:10:02;;;;;;;14.32;12.80;;;;;;;;;;5037500;28;20386;-83
2023/01/28 08:12:28;;;;;;;13.68;12.40;;;;;;;;;;5052962;28;20409;-84
2023/01/28 08:14:54;;;;;;;14.93;13.37;;;;;;;;;;5047665;28;20453;-84
2023/01/28 08:17:20;;;;;;;15.25;13.73;;;;;;;;;;5047917;28;20473;-83
2023/01/28 08:19:46;;;;;;;16.90;15.10;;;;;;;;;;5057172;28;20393;-83
2023/01/28 08:22:12;;;;;;;15.88;14.38;;;;;;;;;;5035311;28;20639;-82
2023/01/28 08:24:38;;;;;;;19.47;17.37;;;;;;;;;;5063749;28;20394;-82
2023/01/28 08:27:04;;;;;;;16.90;15.20;;;;;;;;;;5066704;28;20381;-84
2023/01/28 08:29:30;;;;;;;16.60;15.00;;;;;;;;;;5039985;28;20393;-84
2023/01/28 08:31:56;;;;;;;17.98;16.08;;;;;;;;;;5057890;28;20385;-83
2023/01/28 08:34:22;;;;;;;15.27;13.70;;;;;;;;;;5056813;28;20479;-83
2023/01/28 08:36:48;;;;;;;16.52;14.93;;;;;;;;;;5056081;28;20477;-82
2023/01/28 08:39:14;;;;;;;12.68;11.48;;;;;;;;;;5056090;28;20432;-83
2023/01/28 08:41:40;;;;;;;11.50;10.40;;;;;;;;;;5055750;28;20948;-83
2023/01/28 08:44:06;;;;;;;13.57;12.27;;;;;;;;;;5055445;28;20389;-83
2023/01/28 08:46:32;;;;;;;10.60;9.70;;;;;;;;;;5055876;28;20500;-83
2023/01/28 08:48:58;;;;;;;11.75;10.65;;;;;;;;;;5037791;28;20878;-83
2023/01/28 08:51:24;;;;;;;11.70;10.50;;;;;;;;;;5055603;28;20464;-84
2023/01/28 08:53:50;;;;;;;11.23;10.18;;;;;;;;;;5050518;28;20411;-83
2023/01/28 08:56:16;;;;;;;9.95;8.95;;;;;;;;;;5049546;28;20385;-84
2023/01/28 08:58:43;;;;;;;9.50;8.70;;;;;;;;;;5055721;28;20381;-84
2023/01/28 09:01:09;;;;;;;8.38;7.68;;;;;;;;;;5055843;28;20468;-85
2023/01/28 09:03:35;;;;;;;8.45;7.57;;;;;;;;;;5055745;28;20935;-85
2023/01/28 09:06:02;;;;;;;8.02;7.22;;;;;;;;;;5037812;28;20406;-87
2023/01/28 09:08:28;;;;;;;9.15;8.25;;;;;;;;;;5055397;28;20384;-86
2023/01/28 09:10:55;;;;;;;11.07;8.02;;;;;;;;;;5037675;28;20378;-85
2023/01/28 09:13:21;;;;;;;8.85;8.02;;;;;;;;;;5054632;28;20742;-86
2023/01/28 09:15:47;;;;;;;9.03;8.07;;;;;;;;;;5055780;28;20377;-86
2023/01/28 09:18:13;;;;;;;9.40;8.50;;;;;;;;;;5054916;28;20423;-86
2023/01/28 09:20:39;;;;;;;9.50;8.57;;;;;;;;;;5048791;28;20407;-85
2023/01/28 09:23:06;;;;;;;8.77;7.88;;;;;;;;;;5037244;28;20385;-85
2023/01/28 09:25:32;;;;;;;10.45;8.05;;;;;;;;;;5054792;28;20882;-85
2023/01/28 09:27:58;;;;;;;11.50;8.35;;;;;;;;;;5054660;28;20378;-86
2023/01/28 09:30:24;;;;;;;10.25;8.55;;;;;;;;;;5051889;28;20390;-85
2023/01/28 09:32:51;;;;;;;9.88;8.10;;;;;;;;;;5052093;28;20407;-87
2023/01/28 09:35:18;;;;;;;8.90;8.00;;;;;;;;;;5054878;28;20494;-86
2023/01/28 09:37:44;;;;;;;9.10;8.20;;;;;;;;;;5054907;28;20409;-85
2023/01/28 09:40:15;;;;;;;9.80;8.70;;;;;;;;;;5054628;28;20863;-82
2023/01/28 09:42:49;;;;;;;8.80;8.00;;;;;;;;;;5051684;28;20852;-84
2023/01/28 09:45:24;;;;;;;10.65;9.55;;;;;;;;;;5041577;28;20484;-82
2023/01/28 09:47:52;;;;;;;13.65;9.88;;;;;;;;;;5054376;28;20930;-84
2023/01/28 09:50:24;;;;;;;10.93;9.93;;;;;;;;;;5036676;28;20461;-83
2023/01/28 09:52:50;;;;;;;11.05;9.95;;;;;;;;;;5054555;28;20476;-85
2023/01/28 09:55:20;;;;;;;13.07;11.30;;;;;;;;;;5036431;28;20859;-85
2023/01/28 09:57:54;;;;;;;17.33;12.40;;;;;;;;;;5054241;28;20449;-83
2023/01/28 10:00:24;;;;;;;23.33;15.43;;;;;;;;;;5052405;28;20406;-84
2023/01/28 10:02:56;;;;;;;13.45;11.93;;;;;;;;;;5050349;28;20430;-83
2023/01/28 10:05:25;;;;;;;23.63;15.87;;;;;;;;;;5053847;28;20970;-84
2023/01/28 10:07:57;;;;;;;56.22;28.90;;;;;;;;;;5035936;28;20752;-83
2023/01/28 10:10:24;;;;;;;23.63;16.88;;;;;;;;;;5054093;28;20373;-83
2023/01/28 10:12:59;;;;;;;23.80;17.20;;;;;;;;;;5053896;28;20385;-83
2023/01/28 10:15:34;;;;;;;31.15;20.00;;;;;;;;;;5053807;28;20914;-83
2023/01/28 10:18:07;;;;;;;31.77;19.30;;;;;;;;;;5053841;28;20377;-83
2023/01/28 10:20:37;;;;;;;23.05;16.92;;;;;;;;;;5053815;28;20442;-83
2023/01/28 10:23:26;;;;;;;20.23;16.08;;;;;;;;;;5048022;28;20386;-83
2023/01/28 10:25:53;;;;;;;26.25;18.15;;;;;;;;;;5048178;28;20423;-84
2023/01/28 10:28:20;;;;;;;26.00;18.92;;;;;;;;;;5053265;28;20382;-84
2023/01/28 10:30:47;;;;;;;18.67;16.70;;;;;;;;;;5047334;28;20415;-83
2023/01/28 10:33:17;;;;;;;17.25;15.45;;;;;;;;;;5049907;28;20484;-83
2023/01/28 10:35:43;;;;;;;17.08;15.32;;;;;;;;;;5049967;28;20410;-83
2023/01/28 10:38:13;;;;;;;17.20;14.98;;;;;;;;;;5044914;28;20390;-83
2023/01/28 10:40:40;;;;;;;16.95;14.77;;;;;;;;;;5025962;28;20790;-82
2023/01/28 10:43:07;;;;;;;17.75;15.20;;;;;;;;;;5052237;28;20888;-85
2023/01/28 10:45:54;;;;;;;16.42;14.60;;;;;;;;;;5043670;28;20430;-84
2023/01/28 10:48:23;;;;;;;15.27;13.68;;;;;;;;;;5041081;28;20953;-83
2023/01/28 10:50:51;;;;;;;15.40;13.70;;;;;;;;;;5025532;28;20393;-83
2023/01/28 10:53:17;;;;;;;21.65;14.85;;;;;;;;;;5049992;28;20388;-84
2023/01/28 10:55:46;;;;;;;15.45;13.85;;;;;;;;;;5026937;28;20387;-82
2023/01/28 10:58:23;;;;;;;15.67;13.83;;;;;;;;;;5022367;28;20390;-83
2023/01/28 11:00:57;;;;;;;15.73;14.07;;;;;;;;;;5042443;28;20390;-84
2023/01/28 11:03:28;;;;;;;15.18;13.32;;;;;;;;;;5024637;28;20419;-83
2023/01/28 11:05:55;;;;;;;15.27;13.68;;;;;;;;;;5042201;28;20496;-82
2023/01/28 11:08:23;;;;;;;15.00;13.50;;;;;;;;;;5034493;28;20386;-83
2023/01/28 11:10:49;;;;;;;16.00;14.30;;;;;;;;;;5051949;28;20385;-82
2023/01/28 11:13:22;;;;;;;13.88;12.48;;;;;;;;;;5029773;28;20395;-83
2023/01/28 11:15:58;;;;;;;15.30;12.43;;;;;;;;;;5016512;28;20383;-82
2023/01/28 11:18:26;;;;;;;12.50;11.30;;;;;;;;;;5035864;28;20436;-83
2023/01/28 11:21:03;;;;;;;14.93;11.80;;;;;;;;;;5018533;28;20456;-83
2023/01/28 11:23:40;;;;;;;12.15;10.95;;;;;;;;;;5041867;28;20436;-82
2023/01/28 11:26:15;;;;;;;12.63;11.37;;;;;;;;;;5043228;28;20409;-84
2023/01/28 11:28:42;;;;;;;13.23;11.85;;;;;;;;;;5038652;28;20367;-83
2023/01/28 11:31:10;;;;;;;14.15;12.75;;;;;;;;;;5040501;28;20377;-83
2023/01/28 11:33:37;;;;;;;14.73;12.82;;;;;;;;;;5039974;28;20390;-83
2023/01/28 11:36:12;;;;;;;19.73;13.32;;;;;;;;;;5021936;28;20406;-82
2023/01/28 11:38:47;;;;;;;31.45;20.35;;;;;;;;;;5033954;28;20391;-83
2023/01/28 11:41:14;;;;;;;14.20;12.68;;;;;;;;;;5047860;28;20403;-82
2023/01/28 11:43:40;;;;;;;14.50;12.98;;;;;;;;;;5048277;28;20383;-84
2023/01/28 11:46:12;;;;;;;15.30;13.70;;;;;;;;;;5042206;28;20410;-83
2023/01/28 11:48:48;;;;;;;14.98;13.48;;;;;;;;;;5047446;28;20435;-83
2023/01/28 11:51:33;;;;;;;15.45;13.55;;;;;;;;;;5049786;28;20372;-84
2023/01/28 11:54:11;;;;;;;33.28;25.30;;;;;;;;;;5052036;28;20410;-83
2023/01/28 11:56:40;;;;;;;40.60;30.43;;;;;;;;;;5049734;28;20391;-84
2023/01/28 11:59:09;;;;;;;16.35;14.50;;;;;;;;;;5049516;28;20804;-83
2023/01/28 12:01:38;;;;;;;15.55;14.00;;;;;;;;;;5042296;28;20410;-82
2023/01/28 12:04:10;;;;;;;16.52;14.82;;;;;;;;;;5047173;28;20750;-83
2023/01/28 12:06:39;;;;;;;17.10;14.77;;;;;;;;;;5037854;28;20439;-83
2023/01/28 12:09:26;;;;;;;16.08;14.45;;;;;;;;;;5036949;28;20449;-83
2023/01/28 12:12:10;;;;;;;15.93;14.27;;;;;;;;;;5045387;28;20383;-83
2023/01/28 12:14:39;;;;;;;16.15;14.55;;;;;;;;;;5035091;28;20436;-83
2023/01/28 12:17:14;;;;;;;16.30;14.65;;;;;;;;;;5046494;28;20385;-81
2023/01/28 12:19:54;;;;;;;15.38;13.80;;;;;;;;;;5052589;28;20451;-83
2023/01/28 12:22:25;;;;;;;15.55;13.95;;;;;;;;;;5052111;28;20436;-83
2023/01/28 12:25:10;;;;;;;15.30;13.85;;;;;;;;;;5043101;28;20402;-84
2023/01/28 12:27:55;;;;;;;15.38;13.77;;;;;;;;;;5044522;28;20880;-83
2023/01/28 12:30:26;;;;;;;16.05;14.35;;;;;;;;;;5042755;28;20381;-83
2023/01/28 12:33:08;;;;;;;14.48;13.07;;;;;;;;;;5051784;28;20401;-83
2023/01/28 12:35:43;;;;;;;15.50;13.90;;;;;;;;;;5051646;28;20435;-83
2023/01/28 12:38:18;;;;;;;15.25;13.70;;;;;;;;;;5051494;28;20398;-83
2023/01/28 12:40:44;;;;;;;15.35;13.75;;;;;;;;;;5050675;28;20389;-83
2023/01/28 12:43:13;;;;;;;15.00;13.50;;;;;;;;;;5050456;28;20428;-82
2023/01/28 12:45:40;;;;;;;16.90;14.35;;;;;;;;;;5045792;28;20500;-82
2023/01/28 12:48:12;;;;;;;15.15;13.70;;;;;;;;;;5050209;28;20382;-82
2023/01/28 12:50:41;;;;;;;14.45;12.93;;;;;;;;;;5051327;28;20422;-85
2023/01/28 12:53:13;;;;;;;14.10;12.70;;;;;;;;;;5029206;28;20489;-82
2023/01/28 12:55:47;;;;;;;12.23;11.13;;;;;;;;;;5047461;28;20580;-82
2023/01/28 12:58:19;;;;;;;13.55;12.25;;;;;;;;;;5039528;28;20438;-81
2023/01/28 13:00:48;;;;;;;13.40;12.05;;;;;;;;;;5034960;28;20461;-82
2023/01/28 13:03:24;;;;;;;14.03;12.63;;;;;;;;;;5057061;28;20430;-82
2023/01/28 13:05:52;;;;;;;17.58;14.85;;;;;;;;;;5054670;28;20446;-81
2023/01/28 13:08:26;;;;;;;20.10;14.98;;;;;;;;;;5054469;28;20431;-82
2023/01/28 13:10:53;;;;;;;15.23;13.70;;;;;;;;;;5053930;28;20425;-82
2023/01/28 13:13:28;;;;;;;66.30;34.10;;;;;;;;;;5053727;28;20412;-84
2023/01/28 13:15:54;;;;;;;18.75;15.02;;;;;;;;;;5049961;28;20377;-83
2023/01/28 13:18:32;;;;;;;16.15;14.20;;;;;;;;;;5054668;28;20777;-83
2023/01/28 13:20:59;;;;;;;17.42;15.55;;;;;;;;;;5047236;28;20503;-83
2023/01/28 13:23:31;;;;;;;16.05;14.45;;;;;;;;;;5053755;28;20385;-83
2023/01/28 13:26:07;;;;;;;15.15;13.13;;;;;;;;;;5054758;28;20432;-83
2023/01/28 13:28:33;;;;;;;17.48;15.68;;;;;;;;;;5054490;28;20393;-83
2023/01/28 13:31:01;;;;;;;14.70;13.10;;;;;;;;;;5044239;28;20399;-83
2023/01/28 13:33:37;;;;;;;29.48;21.52;;;;;;;;;;5044222;28;20425;-83
2023/01/28 13:36:09;;;;;;;35.83;25.08;;;;;;;;;;5049438;28;20434;-82
2023/01/28 13:38:36;;;;;;;15.35;13.75;;;;;;;;;;5051452;28;20384;-83
2023/01/28 13:41:05;;;;;;;12.80;11.57;;;;;;;;;;5048317;28;20393;-83
2023/01/28 13:43:37;;;;;;;15.68;14.05;;;;;;;;;;5054147;28;20389;-82
2023/01/28 13:46:05;;;;;;;14.18;12.77;;;;;;;;;;5054078;28;20432;-83
2023/01/28 13:48:37;;;;;;;12.60;11.35;;;;;;;;;;5053995;28;20389;-83
2023/01/28 13:51:03;;;;;;;14.25;12.73;;;;;;;;;;5053940;28;20381;-83
2023/01/28 13:53:29;;;;;;;13.32;11.93;;;;;;;;;;5053957;28;20381;-82
2023/01/28 13:55:58;;;;;;;12.55;11.27;;;;;;;;;;5052427;28;20377;-82
2023/01/28 13:58:26;;;;;;;12.20;11.10;;;;;;;;;;5050794;28;20381;-82
2023/01/28 14:01:11;;;;;;;14.35;12.82;;;;;;;;;;5035867;28;20932;-83
2023/01/28 14:03:43;;;;;;;12.38;11.18;;;;;;;;;;5053544;28;20465;-83
2023/01/28 14:06:28;;;;;;;13.82;12.43;;;;;;;;;;5053704;28;20449;-82
2023/01/28 14:09:12;;;;;;;13.25;11.95;;;;;;;;;;5053502;28;20430;-82
2023/01/28 14:11:57;;;;;;;14.65;13.20;;;;;;;;;;5053514;28;20464;-82
2023/01/28 14:14:41;;;;;;;14.60;13.10;;;;;;;;;;5049257;28;20458;-83
2023/01/28 14:17:26;;;;;;;15.48;13.98;;;;;;;;;;5043323;28;20444;-83
2023/01/28 14:19:53;;;;;;;13.80;12.40;;;;;;;;;;5042376;28;20932;-83
2023/01/28 14:22:20;;;;;;;15.50;13.82;;;;;;;;;;5051556;28;20890;-81
2023/01/28 14:24:46;;;;;;;14.40;12.90;;;;;;;;;;5045759;28;20498;-83
2023/01/28 14:27:12;;;;;;;13.93;12.43;;;;;;;;;;5052893;28;20738;-82
2023/01/28 14:29:56;;;;;;;13.05;11.65;;;;;;;;;;5050979;28;20381;-82
2023/01/28 14:32:31;;;;;;;13.00;11.80;;;;;;;;;;5045212;28;20420;-82
2023/01/28 14:34:58;;;;;;;14.82;13.35;;;;;;;;;;5038329;28;20454;-82
2023/01/28 14:37:28;;;;;;;15.60;14.07;;;;;;;;;;5052528;28;20404;-82
2023/01/28 14:40:00;;;;;;;14.73;13.30;;;;;;;;;;5051983;28;20814;-82
2023/01/28 14:42:27;;;;;;;13.13;11.95;;;;;;;;;;5050252;28;20421;-82
2023/01/28 14:45:01;;;;;;;16.80;12.23;;;;;;;;;;5052084;28;20443;-82
2023/01/28 14:47:42;;;;;;;13.13;11.82;;;;;;;;;;5052419;28;20388;-82
2023/01/28 14:50:11;;;;;;;13.07;11.60;;;;;;;;;;5035859;28;20383;-81
2023/01/28 14:52:43;;;;;;;12.25;11.15;;;;;;;;;;5047987;28;20392;-82
2023/01/28 14:55:09;;;;;;;12.15;11.05;;;;;;;;;;5051760;28;20994;-84
2023/01/28 14:57:51;;;;;;;11.98;10.90;;;;;;;;;;5051997;28;20392;-84
2023/01/28 15:00:22;;;;;;;11.90;10.77;;;;;;;;;;5033108;28;20449;-86
2023/01/28 15:02:48;;;;;;;12.38;11.18;;;;;;;;;;5046709;28;20445;-84
2023/01/28 15:05:17;;;;;;;12.15;10.98;;;;;;;;;;5047783;28;20410;-84